Time;durP1;ratioP1;P1;durP2;ratioP2;P2;SDS_P1;SDS_P2;PMS_P1;PMS_P2;Temp;Humidity;BMP_temperature;BMP_pressure;BME280_temperature;BME280_humidity;BME280_pressure;Samples;Min_cycle;Max_cycle;Signal;HPM_P1;HPM_P2
2024/02/18 00:00:23;;;;;;;21.02;7.32;;;;;;;11.01;70.10;102809.00;5046164;28;20052;-70
2024/02/18 00:02:53;;;;;;;22.83;7.63;;;;;;;10.92;70.31;102809.75;5046687;28;20060;-69
2024/02/18 00:05:20;;;;;;;22.55;7.72;;;;;;;10.87;70.27;102806.97;5031755;28;20057;-70
2024/02/18 00:07:48;;;;;;;18.05;7.20;;;;;;;10.86;70.35;102813.59;5047545;28;20057;-70
2024/02/18 00:10:15;;;;;;;19.40;6.97;;;;;;;10.82;70.28;102810.53;5028042;28;20061;-71
2024/02/18 00:12:42;;;;;;;21.15;7.63;;;;;;;10.79;70.56;102813.00;5048157;28;20665;-72
2024/02/18 00:15:10;;;;;;;20.05;7.72;;;;;;;10.70;70.43;102812.66;5042510;28;20065;-71
2024/02/18 00:17:37;;;;;;;18.48;7.05;;;;;;;10.96;70.06;102806.22;5044410;28;20045;-70
2024/02/18 00:20:05;;;;;;;25.02;6.93;;;;;;;10.87;70.06;102806.97;5035831;28;20056;-71
2024/02/18 00:22:34;;;;;;;21.20;7.22;;;;;;;11.01;69.57;102798.00;5054854;28;20416;-70
2024/02/18 00:25:01;;;;;;;21.08;6.28;;;;;;;10.88;69.94;102790.16;5053391;28;20053;-71
2024/02/18 00:27:28;;;;;;;17.25;6.43;;;;;;;10.88;69.48;102792.09;5042167;28;20052;-71
2024/02/18 00:29:56;;;;;;;17.98;6.50;;;;;;;10.70;70.26;102787.00;5063456;28;20057;-71
2024/02/18 00:32:23;;;;;;;23.20;6.32;;;;;;;10.70;70.04;102790.59;5061032;28;20104;-71
2024/02/18 00:34:51;;;;;;;20.70;6.63;;;;;;;10.46;70.95;102789.28;5032804;28;20061;-71
2024/02/18 00:37:18;;;;;;;15.48;5.97;;;;;;;10.38;71.29;102786.16;5033026;28;20060;-70
2024/02/18 00:39:46;;;;;;;16.58;5.80;;;;;;;10.53;71.25;102786.31;5036469;28;20053;-70
2024/02/18 00:42:13;;;;;;;18.60;5.97;;;;;;;10.69;70.29;102790.84;5033720;28;20520;-68
2024/02/18 00:44:40;;;;;;;19.50;5.85;;;;;;;10.60;70.24;102796.00;5030105;28;20405;-70
2024/02/18 00:47:07;;;;;;;18.33;6.40;;;;;;;10.46;70.79;102789.28;5037873;28;20052;-72
2024/02/18 00:49:35;;;;;;;23.15;6.13;;;;;;;10.68;70.49;102806.56;5029770;28;20068;-71
2024/02/18 00:52:03;;;;;;;13.45;5.35;;;;;;;10.53;70.65;102811.13;5029477;28;20050;-69
2024/02/18 00:54:31;;;;;;;20.40;5.25;;;;;;;10.61;70.04;102808.72;5029878;28;20574;-69
2024/02/18 00:56:58;;;;;;;19.08;5.50;;;;;;;10.76;69.70;102811.56;5049423;28;20500;-73
2024/02/18 00:59:26;;;;;;;21.40;5.93;;;;;;;10.75;69.64;102807.16;5033530;28;20614;-71
2024/02/18 01:01:56;;;;;;;;;;;;;;;10.91;68.87;102805.34;5050074;28;20120;-70
2024/02/18 01:04:23;;;;;;;17.63;6.30;;;;;;;10.76;69.17;102811.56;5048518;28;19925;-69
2024/02/18 01:06:51;;;;;;;12.38;5.65;;;;;;;10.80;69.24;102804.44;5033109;28;20053;-71
2024/02/18 01:09:18;;;;;;;16.10;5.60;;;;;;;10.83;69.05;102792.03;5051037;28;20052;-72
2024/02/18 01:11:46;;;;;;;18.15;5.53;;;;;;;10.96;68.72;102781.41;5046957;28;20075;-72
2024/02/18 01:14:13;;;;;;;17.08;5.90;;;;;;;10.66;68.99;102792.22;5068912;28;20099;-71
2024/02/18 01:16:41;;;;;;;15.98;6.22;;;;;;;10.47;69.78;102793.72;5035027;28;20052;-70
2024/02/18 01:19:10;;;;;;;20.13;6.00;;;;;;;10.35;71.01;102790.28;5054275;28;20052;-70
2024/02/18 01:21:38;;;;;;;17.08;6.40;;;;;;;10.46;70.26;102799.47;5027491;28;20401;-71
2024/02/18 01:24:07;;;;;;;21.40;8.15;;;;;;;10.52;70.21;102806.69;5029313;28;20065;-70
2024/02/18 01:26:34;;;;;;;20.15;8.25;;;;;;;10.63;69.52;102808.44;5035418;28;20057;-72
2024/02/18 01:29:02;;;;;;;15.15;6.60;;;;;;;10.48;70.21;102805.56;5083896;28;20179;-70
2024/02/18 01:31:29;;;;;;;15.98;5.60;;;;;;;10.33;70.63;102809.00;5083765;28;20068;-71
2024/02/18 01:33:56;;;;;;;15.82;6.40;;;;;;;10.64;70.23;102804.56;5050445;28;20508;-71
2024/02/18 01:36:24;;;;;;;19.42;5.75;;;;;;;10.62;69.78;102804.84;5066551;28;20060;-71
2024/02/18 01:38:51;;;;;;;13.93;5.38;;;;;;;10.55;69.96;102798.72;5048964;28;20507;-70
2024/02/18 01:41:19;;;;;;;21.60;5.97;;;;;;;10.50;69.98;102795.94;5042073;28;20041;-70
2024/02/18 01:43:46;;;;;;;19.02;6.25;;;;;;;10.56;70.15;102799.56;5044713;28;20064;-69
2024/02/18 01:46:14;;;;;;;19.02;6.05;;;;;;;10.51;70.22;102802.28;5044534;28;20065;-71
2024/02/18 01:48:41;;;;;;;22.50;7.82;;;;;;;10.48;70.05;102792.59;5031092;28;20064;-70
2024/02/18 01:51:09;;;;;;;21.83;7.18;;;;;;;10.35;70.68;102800.47;5044419;28;20049;-70
2024/02/18 01:53:37;;;;;;;17.83;8.05;;;;;;;10.39;70.87;102796.91;5013750;28;20734;-70
2024/02/18 01:56:05;;;;;;;16.20;7.35;;;;;;;10.17;71.38;102791.50;5078340;28;20066;-71
2024/02/18 01:58:34;;;;;;;14.85;6.95;;;;;;;10.20;71.86;102779.13;5046832;28;20590;-70
2024/02/18 02:01:02;;;;;;;19.85;7.97;;;;;;;10.36;71.40;102780.91;5048315;28;20059;-70
2024/02/18 02:03:31;;;;;;;20.73;8.10;;;;;;;10.29;71.68;102772.03;5028495;28;20064;-70
2024/02/18 02:05:59;;;;;;;22.30;8.48;;;;;;;10.45;70.73;102782.13;5047052;28;20412;-71
2024/02/18 02:08:28;;;;;;;29.15;11.40;;;;;;;10.26;71.45;102774.50;5043647;28;20074;-70
2024/02/18 02:10:56;;;;;;;25.48;12.20;;;;;;;10.26;71.36;102780.84;5036787;28;20071;-71
2024/02/18 02:13:24;;;;;;;23.40;10.30;;;;;;;10.33;71.34;102772.34;5045331;28;20051;-70
2024/02/18 02:15:51;;;;;;;23.00;9.32;;;;;;;10.14;71.47;102767.25;5049414;28;20045;-71
2024/02/18 02:18:19;;;;;;;18.90;7.97;;;;;;;9.94;72.75;102768.91;5080400;28;20063;-71
2024/02/18 02:20:46;;;;;;;19.70;7.55;;;;;;;10.10;72.87;102760.59;5020366;28;20057;-71
2024/02/18 02:23:14;;;;;;;15.95;7.43;;;;;;;10.23;72.15;102764.00;5037160;28;20050;-71
2024/02/18 02:25:42;;;;;;;17.98;7.20;;;;;;;10.08;72.38;102770.16;5044499;28;20065;-72
2024/02/18 02:28:18;;;;;;;14.10;6.13;;;;;;;10.23;72.43;102773.09;5029451;28;20057;-70
2024/02/18 02:30:46;;;;;;;13.73;6.05;;;;;;;10.00;72.82;102768.72;5068522;28;20064;-70
2024/02/18 02:33:14;;;;;;;17.42;6.00;;;;;;;10.02;73.14;102765.69;5045051;28;20053;-70
2024/02/18 02:35:41;;;;;;;19.40;6.65;;;;;;;9.92;73.24;102755.41;5068000;28;20048;-71
2024/02/18 02:38:09;;;;;;;15.63;6.10;;;;;;;10.02;73.04;102760.19;5051351;28;20061;-70
2024/02/18 02:40:36;;;;;;;17.40;6.10;;;;;;;10.00;73.17;102754.13;5072671;28;20068;-70
2024/02/18 02:43:03;;;;;;;18.50;5.60;;;;;;;10.01;73.39;102761.28;5043412;28;20053;-71
2024/02/18 02:45:31;;;;;;;15.95;5.93;;;;;;;9.91;73.58;102758.41;5052539;28;20072;-71
2024/02/18 02:47:58;;;;;;;14.80;5.75;;;;;;;9.76;73.85;102758.25;5026802;28;20056;-72
2024/02/18 02:50:26;;;;;;;16.90;5.82;;;;;;;9.76;74.01;102750.00;5028040;28;20421;-69
2024/02/18 02:52:53;;;;;;;14.40;5.55;;;;;;;9.76;73.92;102748.06;5030096;28;20052;-70
2024/02/18 02:55:21;;;;;;;11.88;5.28;;;;;;;9.74;73.80;102743.94;5055319;28;20067;-69
2024/02/18 02:57:48;;;;;;;20.75;5.55;;;;;;;9.76;74.08;102736.25;5046795;28;20060;-70
2024/02/18 03:00:16;;;;;;;15.95;5.22;;;;;;;10.10;73.20;102719.28;5048262;28;20053;-70
2024/02/18 03:02:43;;;;;;;16.63;6.43;;;;;;;10.07;72.95;102716.19;5078307;28;20053;-71
2024/02/18 03:05:10;;;;;;;17.73;5.55;;;;;;;10.16;72.88;102703.66;5047995;28;20539;-70
2024/02/18 03:07:38;;;;;;;19.50;5.28;;;;;;;9.94;72.86;102702.84;5046001;28;20059;-69
2024/02/18 03:10:06;;;;;;;18.63;6.03;;;;;;;9.80;73.69;102690.59;5047606;28;20091;-71
2024/02/18 03:12:34;;;;;;;18.80;5.68;;;;;;;9.94;73.41;102691.81;5037414;28;20768;-71
2024/02/18 03:15:02;;;;;;;15.88;6.35;;;;;;;9.95;73.31;102688.84;5043504;28;20053;-70
2024/02/18 03:17:29;;;;;;;20.08;6.57;;;;;;;9.94;73.05;102689.06;5062149;28;20060;-71
2024/02/18 03:19:56;;;;;;;19.38;6.50;;;;;;;9.99;73.43;102689.97;5047908;28;20049;-72
2024/02/18 03:22:24;;;;;;;17.63;6.78;;;;;;;10.00;73.50;102688.03;5048021;28;20580;-70
2024/02/18 03:24:51;;;;;;;15.20;6.05;;;;;;;10.01;72.99;102684.19;5047783;28;20048;-70
2024/02/18 03:27:19;;;;;;;15.40;5.75;;;;;;;10.03;73.05;102680.09;5079815;28;20570;-72
2024/02/18 03:29:46;;;;;;;18.60;5.00;;;;;;;10.02;73.21;102683.09;5046121;28;20510;-71
2024/02/18 03:32:14;;;;;;;15.25;5.40;;;;;;;9.94;73.33;102678.06;5044771;28;20064;-72
2024/02/18 03:34:42;;;;;;;13.35;4.90;;;;;;;10.13;73.05;102679.38;5045507;28;20049;-71
2024/02/18 03:37:11;;;;;;;15.18;5.63;;;;;;;9.89;73.61;102676.09;5078753;28;20053;-71
2024/02/18 03:39:39;;;;;;;19.33;5.68;;;;;;;10.02;73.34;102674.84;5046654;28;20057;-70
2024/02/18 03:42:07;;;;;;;12.43;4.97;;;;;;;9.96;73.18;102659.38;5047120;28;20055;-70
2024/02/18 03:44:34;;;;;;;13.57;4.97;;;;;;;10.00;73.48;102660.50;5042404;28;20052;-71
2024/02/18 03:47:02;;;;;;;15.32;4.93;;;;;;;10.06;73.18;102649.28;5079227;28;20064;-69
2024/02/18 03:49:29;;;;;;;12.43;4.95;;;;;;;9.54;74.72;102641.91;5025126;28;20049;-70
2024/02/18 03:51:57;;;;;;;15.02;6.13;;;;;;;9.45;75.71;102633.28;5027111;28;20056;-70
2024/02/18 03:54:26;;;;;;;24.02;7.97;;;;;;;9.65;75.19;102635.41;5042356;28;20510;-69
2024/02/18 03:56:53;;;;;;;25.58;10.98;;;;;;;9.68;74.92;102627.47;5062305;28;20060;-69
2024/02/18 03:59:21;;;;;;;44.88;16.27;;;;;;;9.68;74.68;102621.97;5047381;28;20056;-71
2024/02/18 04:01:48;;;;;;;58.80;24.45;;;;;;;9.42;75.97;102622.81;5046126;28;20554;-71
2024/02/18 04:04:16;;;;;;;87.20;39.88;;;;;;;9.65;75.54;102619.75;5043071;28;20041;-70
2024/02/18 04:06:43;;;;;;;71.95;35.45;;;;;;;9.63;74.91;102621.91;5046606;28;20049;-71
2024/02/18 04:09:11;;;;;;;52.38;26.08;;;;;;;9.64;75.51;102614.50;5052658;28;20056;-70
2024/02/18 04:11:39;;;;;;;31.08;14.73;;;;;;;9.64;75.08;102611.75;5054128;28;20049;-70
2024/02/18 04:14:07;;;;;;;29.05;12.75;;;;;;;9.61;75.51;102610.34;5051276;28;20057;-71
2024/02/18 04:16:35;;;;;;;26.90;11.75;;;;;;;9.53;75.80;102602.56;5035974;28;20057;-71
2024/02/18 04:19:02;;;;;;;20.45;9.77;;;;;;;9.55;75.69;102596.81;5050509;28;20048;-71
2024/02/18 04:21:30;;;;;;;29.45;11.30;;;;;;;9.54;75.69;102597.88;5051480;28;20052;-70
2024/02/18 04:23:57;;;;;;;34.92;12.38;;;;;;;9.20;76.81;102601.94;5049522;28;20053;-70
2024/02/18 04:26:25;;;;;;;30.42;11.07;;;;;;;9.22;77.10;102613.53;5038816;28;20068;-71
2024/02/18 04:28:52;;;;;;;19.52;8.25;;;;;;;9.39;76.89;102606.84;5031078;28;20060;-70
2024/02/18 04:31:20;;;;;;;16.63;5.43;;;;;;;9.61;76.23;102607.59;5052464;28;20048;-71
2024/02/18 04:33:47;;;;;;;19.10;5.50;;;;;;;9.57;75.71;102600.13;5070402;28;20061;-72
2024/02/18 04:36:15;;;;;;;13.77;5.13;;;;;;;9.60;75.91;102596.84;5061471;28;20067;-71
2024/02/18 04:38:46;;;;;;;18.58;5.40;;;;;;;9.78;75.15;102583.53;5082768;28;20068;-71
2024/02/18 04:41:14;;;;;;;11.88;5.20;;;;;;;9.52;75.50;102573.38;5048972;28;20060;-71
2024/02/18 04:43:41;;;;;;;15.60;4.80;;;;;;;9.65;75.42;102580.38;5043493;28;20060;-69
2024/02/18 04:46:09;;;;;;;13.55;5.70;;;;;;;9.69;75.30;102578.78;5031397;28;20053;-70
2024/02/18 04:48:38;;;;;;;16.52;5.72;;;;;;;9.63;75.71;102580.66;5034775;28;20552;-71
2024/02/18 04:51:05;;;;;;;22.02;5.72;;;;;;;9.49;75.75;102578.59;5050429;28;20076;-71
2024/02/18 04:53:32;;;;;;;15.70;6.20;;;;;;;9.71;75.15;102563.66;5047966;28;20064;-70
2024/02/18 04:56:00;;;;;;;15.85;6.82;;;;;;;9.59;75.41;102567.69;5050778;28;20052;-69
2024/02/18 04:58:27;;;;;;;15.60;6.43;;;;;;;9.36;76.23;102568.88;5035241;28;20061;-70
2024/02/18 05:00:54;;;;;;;21.83;8.95;;;;;;;9.61;76.49;102571.81;5048899;28;20056;-69
2024/02/18 05:03:22;;;;;;;24.20;10.23;;;;;;;9.52;75.49;102570.63;5051395;28;20053;-70
2024/02/18 05:05:49;;;;;;;25.30;11.40;;;;;;;9.58;76.11;102569.59;5050953;28;20060;-70
2024/02/18 05:08:17;;;;;;;21.98;9.45;;;;;;;9.51;76.61;102570.91;5047019;28;20459;-69
2024/02/18 05:10:44;;;;;;;22.63;8.90;;;;;;;9.66;75.84;102565.56;5049112;28;20049;-70
2024/02/18 05:13:11;;;;;;;21.15;7.38;;;;;;;9.59;76.31;102563.00;5048352;28;20057;-71
2024/02/18 05:15:38;;;;;;;15.23;6.53;;;;;;;9.69;75.72;102562.28;5047390;28;20052;-70
2024/02/18 05:18:06;;;;;;;14.43;5.22;;;;;;;9.64;75.76;102570.50;5047520;28;20049;-70
2024/02/18 05:20:33;;;;;;;14.35;5.72;;;;;;;9.71;75.81;102563.66;5048858;28;21006;-71
2024/02/18 05:23:01;;;;;;;15.48;5.97;;;;;;;9.65;75.82;102559.22;5048255;28;20792;-70
2024/02/18 05:25:28;;;;;;;14.25;6.40;;;;;;;9.59;75.34;102571.25;5064970;28;20059;-70
2024/02/18 05:27:56;;;;;;;16.17;6.18;;;;;;;9.64;75.73;102574.03;5046844;28;20056;-70
2024/02/18 05:30:23;;;;;;;16.05;5.35;;;;;;;9.67;76.26;102564.44;5047364;28;20071;-72
2024/02/18 05:32:51;;;;;;;15.15;5.90;;;;;;;9.69;75.70;102554.81;5049297;28;20060;-70
2024/02/18 05:35:18;;;;;;;13.82;4.75;;;;;;;9.72;75.63;102554.31;5050636;28;20057;-69
2024/02/18 05:37:46;;;;;;;14.68;4.90;;;;;;;9.47;76.23;102558.75;5050280;28;20052;-70
2024/02/18 05:40:13;;;;;;;14.40;4.45;;;;;;;9.77;75.80;102550.75;5047937;28;20436;-70
2024/02/18 05:42:41;;;;;;;15.55;4.60;;;;;;;9.83;75.62;102552.47;5049861;28;20059;-70
2024/02/18 05:45:08;;;;;;;18.00;4.63;;;;;;;9.91;75.49;102543.72;5044453;28;20041;-70
2024/02/18 05:47:35;;;;;;;14.23;4.32;;;;;;;9.79;75.65;102537.56;5045578;28;20061;-71
2024/02/18 05:50:03;;;;;;;14.57;4.63;;;;;;;9.92;75.18;102554.47;5035428;28;20048;-69
2024/02/18 05:52:31;;;;;;;13.10;4.10;;;;;;;9.90;74.97;102555.84;5081366;28;20057;-70
2024/02/18 05:54:58;;;;;;;12.25;4.28;;;;;;;10.02;75.10;102549.00;5048467;28;20049;-71
2024/02/18 05:57:26;;;;;;;18.83;4.68;;;;;;;10.18;74.42;102552.75;5082019;28;20056;-70
2024/02/18 05:59:53;;;;;;;12.30;4.00;;;;;;;10.22;74.17;102553.88;5047744;28;20064;-70
2024/02/18 06:02:21;;;;;;;8.82;3.75;;;;;;;10.30;74.21;102547.03;5048367;28;20056;-70
2024/02/18 06:04:48;;;;;;;12.48;3.97;;;;;;;10.06;74.72;102546.56;5048268;28;20064;-70
2024/02/18 06:07:15;;;;;;;13.10;3.75;;;;;;;10.16;74.31;102552.19;5049262;28;20053;-69
2024/02/18 06:09:43;;;;;;;10.63;3.85;;;;;;;10.23;74.35;102558.28;5049024;28;20057;-71
2024/02/18 06:12:10;;;;;;;12.43;4.25;;;;;;;10.19;74.94;102560.75;5044648;28;20057;-69
2024/02/18 06:14:37;;;;;;;13.95;4.30;;;;;;;10.00;75.84;102551.22;5047308;28;20072;-70
2024/02/18 06:17:05;;;;;;;10.77;4.05;;;;;;;10.00;76.53;102551.22;5045959;28;20049;-70
2024/02/18 06:19:32;;;;;;;12.40;3.60;;;;;;;10.02;76.76;102548.22;5046176;28;20506;-69
2024/02/18 06:21:59;;;;;;;10.90;3.88;;;;;;;9.98;77.15;102544.31;5040290;28;20057;-70
2024/02/18 06:24:27;;;;;;;14.68;3.30;;;;;;;9.78;77.89;102539.50;5029036;28;21061;-69
2024/02/18 06:26:58;;;;;;;11.68;4.00;;;;;;;9.66;78.79;102535.28;5027009;28;20057;-70
2024/02/18 06:29:25;;;;;;;8.80;3.63;;;;;;;9.69;79.26;102534.75;5037702;28;20056;-70
2024/02/18 06:31:52;;;;;;;14.15;4.20;;;;;;;9.38;80.87;102513.59;5048047;28;20064;-70
2024/02/18 06:34:20;;;;;;;14.10;4.30;;;;;;;9.58;80.60;102503.59;5028387;28;20064;-69
2024/02/18 06:36:47;;;;;;;13.02;3.97;;;;;;;9.52;80.07;102498.31;5043210;28;20160;-70
2024/02/18 06:39:14;;;;;;;13.02;4.80;;;;;;;9.52;80.08;102490.88;5028892;28;20061;-69
2024/02/18 06:41:42;;;;;;;11.98;4.82;;;;;;;9.41;80.69;102493.81;5038144;28;20148;-69
2024/02/18 06:44:09;;;;;;;18.17;5.47;;;;;;;9.73;80.00;102489.94;5046762;28;20759;-70
2024/02/18 06:46:37;;;;;;;15.50;4.65;;;;;;;9.53;80.07;102487.03;5048897;28;20067;-69
2024/02/18 06:49:05;;;;;;;13.68;4.78;;;;;;;9.74;79.99;102499.03;5063630;28;20060;-69
2024/02/18 06:51:32;;;;;;;13.80;4.72;;;;;;;9.52;80.38;102496.38;5045654;28;20512;-70
2024/02/18 06:53:59;;;;;;;14.15;5.07;;;;;;;9.57;79.99;102492.84;5046593;28;20057;-70
2024/02/18 06:56:27;;;;;;;12.57;4.00;;;;;;;9.59;80.24;102490.66;5046916;28;20088;-69
2024/02/18 06:58:54;;;;;;;15.50;4.03;;;;;;;9.76;79.48;102494.09;5048085;28;20063;-70
2024/02/18 07:01:25;;;;;;;12.07;4.25;;;;;;;9.89;78.64;102497.19;5047569;28;20064;-69
2024/02/18 07:03:53;;;;;;;13.25;4.20;;;;;;;9.82;78.86;102484.75;5046987;28;20635;-70
2024/02/18 07:06:20;;;;;;;13.25;4.45;;;;;;;9.80;78.71;102485.03;5048454;28;20045;-71
2024/02/18 07:08:48;;;;;;;13.35;4.35;;;;;;;9.67;79.29;102482.75;5047809;28;20671;-69
2024/02/18 07:11:15;;;;;;;19.15;5.57;;;;;;;9.57;79.36;102481.84;5047616;28;20052;-70
2024/02/18 07:13:42;;;;;;;18.08;4.65;;;;;;;9.54;79.92;102466.69;5044397;28;20068;-71
2024/02/18 07:16:10;;;;;;;14.18;5.18;;;;;;;9.53;79.62;102448.53;5042171;28;20055;-70
2024/02/18 07:18:37;;;;;;;11.27;4.15;;;;;;;9.66;78.72;102436.25;5047651;28;20053;-69
2024/02/18 07:21:05;;;;;;;14.43;4.80;;;;;;;9.52;79.37;102440.56;5029704;28;20056;-70
2024/02/18 07:23:32;;;;;;;17.35;4.47;;;;;;;9.53;79.89;102433.94;5045849;28;20052;-69
2024/02/18 07:25:59;;;;;;;13.85;3.97;;;;;;;9.53;79.66;102439.44;5046496;28;20047;-70
2024/02/18 07:28:27;;;;;;;16.15;4.90;;;;;;;9.34;80.63;102449.19;5047686;28;20060;-69
2024/02/18 07:30:55;;;;;;;22.05;6.05;;;;;;;9.41;81.01;102441.56;5048492;28;20056;-70
2024/02/18 07:33:22;;;;;;;12.35;4.82;;;;;;;9.44;80.68;102439.09;5050074;28;20053;-69
2024/02/18 07:35:49;;;;;;;14.15;4.57;;;;;;;9.41;80.57;102428.66;5013653;28;20057;-70
2024/02/18 07:38:17;;;;;;;15.23;4.78;;;;;;;9.43;80.89;102423.69;5046509;28;20053;-70
2024/02/18 07:40:44;;;;;;;10.77;3.63;;;;;;;9.73;80.11;102428.56;5043712;28;20060;-70
2024/02/18 07:43:11;;;;;;;12.30;3.53;;;;;;;9.63;80.08;102423.00;5040858;28;20053;-70
2024/02/18 07:45:39;;;;;;;11.30;3.72;;;;;;;9.72;80.31;102421.41;5041462;28;20048;-69
2024/02/18 07:48:07;;;;;;;14.32;4.97;;;;;;;9.44;80.89;102443.78;5046049;28;20045;-70
2024/02/18 07:50:34;;;;;;;10.95;4.00;;;;;;;9.71;81.19;102444.53;5045752;28;20048;-69
2024/02/18 07:53:03;;;;;;;16.67;3.92;;;;;;;9.91;80.13;102437.22;5027666;28;20048;-70
2024/02/18 07:55:31;;;;;;;10.27;3.40;;;;;;;9.81;80.23;102428.91;5044659;28;20057;-69
2024/02/18 07:57:59;;;;;;;13.00;3.63;;;;;;;9.89;79.94;102428.38;5045442;28;20057;-70
2024/02/18 08:00:26;;;;;;;12.63;3.92;;;;;;;10.03;79.76;102434.22;5046820;28;20059;-70
2024/02/18 08:02:54;;;;;;;13.98;3.78;;;;;;;10.15;78.91;102441.22;5046135;28;20049;-72
2024/02/18 08:05:21;;;;;;;10.60;3.38;;;;;;;10.23;78.67;102442.63;5047516;28;20053;-71
2024/02/18 08:07:49;;;;;;;17.58;4.32;;;;;;;10.30;78.72;102434.09;5047697;28;20061;-70
2024/02/18 08:10:16;;;;;;;13.85;3.85;;;;;;;10.17;78.90;102449.19;5045367;28;20057;-70
2024/02/18 08:12:44;;;;;;;16.13;4.45;;;;;;;10.16;79.38;102448.34;5046322;28;20064;-69
2024/02/18 08:15:11;;;;;;;24.73;12.82;;;;;;;10.43;79.13;102442.69;5045938;28;20056;-70
2024/02/18 08:17:38;;;;;;;26.27;12.80;;;;;;;10.69;77.88;102432.56;5045884;28;20056;-70
2024/02/18 08:20:06;;;;;;;20.77;12.40;;;;;;;10.68;77.91;102436.44;5046570;28;20056;-71
2024/02/18 08:22:33;;;;;;;12.30;4.25;;;;;;;10.84;77.11;102440.88;5063803;28;20456;-70
2024/02/18 08:25:00;;;;;;;8.70;3.20;;;;;;;10.66;77.16;102444.97;5048068;28;20053;-72
2024/02/18 08:27:28;;;;;;;11.25;3.53;;;;;;;10.90;77.08;102428.72;5080433;28;20061;-71
2024/02/18 08:29:55;;;;;;;12.63;3.58;;;;;;;10.92;76.77;102424.63;5047499;28;20053;-70
2024/02/18 08:32:23;;;;;;;16.95;3.55;;;;;;;11.05;75.95;102414.97;5048326;28;20540;-70
2024/02/18 08:34:50;;;;;;;12.77;3.45;;;;;;;10.82;76.36;102405.31;5072763;28;20053;-72
2024/02/18 08:37:18;;;;;;;15.32;3.88;;;;;;;10.71;77.00;102406.38;5047776;28;20048;-71
2024/02/18 08:39:45;;;;;;;11.95;3.30;;;;;;;10.52;77.58;102424.53;5046615;28;20052;-70
2024/02/18 08:42:13;;;;;;;13.18;3.70;;;;;;;10.70;77.90;102431.47;5044742;28;20061;-70
2024/02/18 08:44:40;;;;;;;12.25;3.92;;;;;;;10.86;76.68;102433.16;5046423;28;20051;-70
2024/02/18 08:47:07;;;;;;;11.95;3.22;;;;;;;10.83;76.59;102431.75;5045378;28;20056;-70
2024/02/18 08:49:35;;;;;;;13.88;4.07;;;;;;;10.64;77.11;102433.38;5045274;28;20095;-70
2024/02/18 08:52:04;;;;;;;17.02;3.95;;;;;;;10.70;77.02;102431.47;5044602;28;20583;-70
2024/02/18 08:54:32;;;;;;;14.83;3.70;;;;;;;10.74;77.63;102424.31;5059413;28;20078;-70
2024/02/18 08:57:00;;;;;;;12.43;3.60;;;;;;;10.69;77.68;102418.78;5031205;28;20300;-69
2024/02/18 08:59:27;;;;;;;12.40;3.85;;;;;;;10.94;77.54;102416.91;5026113;28;20060;-71
2024/02/18 09:01:58;;;;;;;16.45;3.88;;;;;;;10.91;77.71;102431.22;5049087;28;20053;-70
2024/02/18 09:04:30;;;;;;;14.65;3.55;;;;;;;10.93;78.63;102437.28;5050861;28;20053;-69
2024/02/18 09:06:58;;;;;;;11.88;3.53;;;;;;;11.11;78.30;102445.03;5048797;28;20595;-71
2024/02/18 09:09:26;;;;;;;15.07;3.58;;;;;;;11.55;76.77;102455.50;5054292;28;20065;-69
2024/02/18 09:11:53;;;;;;;11.35;2.95;;;;;;;11.21;79.49;102455.22;5016182;28;20094;-70
2024/02/18 09:14:20;;;;;;;12.98;3.97;;;;;;;11.17;81.87;102466.00;5048898;28;20057;-69
2024/02/18 09:16:48;;;;;;;14.25;4.03;;;;;;;11.12;83.71;102468.75;5049034;28;20048;-69
2024/02/18 09:19:16;;;;;;;12.32;3.45;;;;;;;11.06;85.37;102461.56;5048787;28;20049;-70
2024/02/18 09:21:43;;;;;;;12.50;3.83;;;;;;;10.96;87.42;102457.97;5041010;28;20053;-69
2024/02/18 09:24:11;;;;;;;15.05;4.55;;;;;;;11.02;87.48;102459.63;5045672;28;20068;-70
2024/02/18 09:26:39;;;;;;;12.05;4.72;;;;;;;11.05;87.93;102462.66;5048714;28;20052;-69
2024/02/18 09:29:06;;;;;;;16.15;5.50;;;;;;;11.26;86.64;102458.81;5044927;28;20053;-69
2024/02/18 09:31:37;;;;;;;12.38;4.28;;;;;;;11.19;86.94;102463.78;5041642;28;20061;-71
2024/02/18 09:34:04;;;;;;;9.40;3.40;;;;;;;10.96;88.24;102460.75;5030314;28;20160;-70
2024/02/18 09:36:33;;;;;;;10.20;3.25;;;;;;;11.11;88.29;102464.34;5081355;28;20534;-70
2024/02/18 09:39:01;;;;;;;13.50;2.72;;;;;;;11.09;88.25;102447.22;5065479;28;20053;-70
2024/02/18 09:41:29;;;;;;;14.65;3.45;;;;;;;11.27;88.35;102437.59;5048474;28;20057;-71
2024/02/18 09:44:03;;;;;;;12.05;2.97;;;;;;;11.11;89.60;102433.16;5049844;28;20068;-70
2024/02/18 09:46:33;;;;;;;12.40;3.42;;;;;;;10.97;90.95;102415.50;5040780;28;20053;-72
2024/02/18 09:49:02;;;;;;;;;;;;;;;11.09;90.70;102414.13;5049323;28;20056;-70
2024/02/18 09:51:29;;;;;;;8.23;2.80;;;;;;;10.95;90.27;102402.00;5030358;28;19932;-69
2024/02/18 09:53:58;;;;;;;12.73;3.20;;;;;;;11.07;90.06;102399.00;5027896;28;20056;-70
2024/02/18 09:56:28;;;;;;;14.52;2.60;;;;;;;11.30;89.92;102407.50;5071076;28;20056;-67
2024/02/18 09:58:55;;;;;;;9.73;2.60;;;;;;;11.33;89.67;102418.00;5045934;28;20056;-70
2024/02/18 10:01:23;;;;;;;8.35;3.28;;;;;;;11.54;89.09;102409.69;5046867;28;20128;-68
2024/02/18 10:03:50;;;;;;;12.60;3.40;;;;;;;11.35;88.60;102390.13;5049597;28;20056;-68
2024/02/18 10:06:18;;;;;;;16.35;3.35;;;;;;;11.45;88.10;102381.00;5043253;28;20431;-70
2024/02/18 10:08:54;;;;;;;13.48;3.20;;;;;;;11.51;87.23;102363.31;5071437;28;20599;-67
2024/02/18 10:11:23;;;;;;;10.82;2.90;;;;;;;11.38;87.61;102371.06;5030984;28;20389;-69
2024/02/18 10:13:51;;;;;;;13.10;3.08;;;;;;;11.26;87.81;102375.25;5049996;28;20060;-67
2024/02/18 10:16:19;;;;;;;11.27;3.08;;;;;;;11.38;88.16;102384.06;5047880;28;20049;-69
2024/02/18 10:18:47;;;;;;;9.88;3.10;;;;;;;11.41;87.56;102393.69;5045622;28;20051;-67
2024/02/18 10:21:15;;;;;;;9.38;2.50;;;;;;;11.30;88.12;102393.72;5047088;28;20053;-70
2024/02/18 10:23:43;;;;;;;16.70;4.05;;;;;;;11.29;87.94;102383.81;5046732;28;20385;-69
2024/02/18 10:26:11;;;;;;;10.95;3.28;;;;;;;11.41;87.14;102369.72;5018844;28;20041;-67
2024/02/18 10:28:39;;;;;;;10.63;3.70;;;;;;;11.49;86.42;102390.41;5019466;28;20056;-68
2024/02/18 10:31:10;;;;;;;16.38;3.30;;;;;;;11.42;85.95;102385.16;5046669;28;20691;-68
2024/02/18 10:33:39;;;;;;;11.65;3.42;;;;;;;11.62;84.76;102382.34;5028448;28;20065;-67
2024/02/18 10:36:09;;;;;;;10.27;3.03;;;;;;;11.67;84.68;102378.78;5044777;28;20528;-68
2024/02/18 10:38:42;;;;;;;13.02;3.83;;;;;;;11.70;84.01;102381.81;5045687;28;20086;-69
2024/02/18 10:41:16;;;;;;;13.20;3.42;;;;;;;11.66;83.10;102371.63;5046857;28;20045;-71
2024/02/18 10:43:48;;;;;;;14.13;3.65;;;;;;;11.78;83.25;102367.44;5045318;28;20056;-69
2024/02/18 10:46:19;;;;;;;13.30;3.90;;;;;;;11.66;82.81;102369.69;5070985;28;20049;-69
2024/02/18 10:48:52;;;;;;;13.77;4.10;;;;;;;11.63;83.16;102377.69;5046110;28;20047;-69
2024/02/18 10:51:31;;;;;;;10.73;3.42;;;;;;;11.67;83.22;102367.75;5047763;28;20052;-68
2024/02/18 10:54:15;;;;;;;16.55;6.10;;;;;;;11.71;83.41;102375.19;5045652;28;20048;-68
2024/02/18 10:56:42;;;;;;;17.00;7.55;;;;;;;11.80;82.76;102378.19;5042729;28;20047;-70
2024/02/18 10:59:13;;;;;;;19.15;7.95;;;;;;;11.77;84.25;102367.72;5021422;28;20057;-70
2024/02/18 11:01:50;;;;;;;13.00;5.68;;;;;;;11.83;83.06;102366.59;5045485;28;20068;-70
2024/02/18 11:04:18;;;;;;;18.23;7.18;;;;;;;11.80;84.07;102376.25;5068216;28;20583;-70
2024/02/18 11:06:46;;;;;;;15.25;3.78;;;;;;;11.91;84.37;102371.50;5047320;28;20045;-69
2024/02/18 11:09:14;;;;;;;10.23;3.88;;;;;;;12.16;82.91;102369.47;5045436;28;20057;-69
2024/02/18 11:11:42;;;;;;;16.52;3.85;;;;;;;12.27;82.97;102362.78;5030200;28;20059;-73
2024/02/18 11:14:10;;;;;;;12.10;3.85;;;;;;;12.09;83.05;102371.72;5053176;28;20045;-72
2024/02/18 11:16:38;;;;;;;15.13;3.63;;;;;;;12.28;83.22;102364.44;5075480;28;20780;-74
2024/02/18 11:19:05;;;;;;;13.15;4.38;;;;;;;12.16;82.70;102358.44;5028552;28;20143;-68
2024/02/18 11:21:34;;;;;;;16.83;4.47;;;;;;;12.00;84.18;102358.78;5025045;28;20057;-69